sensor_id;sensor_type;location;lat;lon;timestamp;temperature;humidity
7192;DHT22;3637;51.494;11.958;2022-12-20T00:02:34;5.40;99.90
7192;DHT22;3637;51.494;11.958;2022-12-20T00:05:35;5.60;99.90
7192;DHT22;3637;51.494;11.958;2022-12-20T00:08:38;5.40;99.90
7192;DHT22;3637;51.494;11.958;2022-12-20T00:11:41;6.00;99.90
7192;DHT22;3637;51.494;11.958;2022-12-20T00:14:43;5.30;99.90
7192;DHT22;3637;51.494;11.958;2022-12-20T00:17:45;5.30;99.90
7192;DHT22;3637;51.494;11.958;2022-12-20T00:20:47;6.30;99.90
7192;DHT22;3637;51.494;11.958;2022-12-20T00:23:50;5.90;99.90
7192;DHT22;3637;51.494;11.958;2022-12-20T00:26:53;6.10;99.90
7192;DHT22;3637;51.494;11.958;2022-12-20T00:29:55;6.10;99.90
7192;DHT22;3637;51.494;11.958;2022-12-20T00:32:57;6.20;99.90
7192;DHT22;3637;51.494;11.958;2022-12-20T00:35:59;5.90;99.90
7192;DHT22;3637;51.494;11.958;2022-12-20T00:39:01;5.40;99.90
7192;DHT22;3637;51.494;11.958;2022-12-20T00:42:04;5.80;99.90
7192;DHT22;3637;51.494;11.958;2022-12-20T00:45:07;5.80;99.90
7192;DHT22;3637;51.494;11.958;2022-12-20T00:48:09;5.30;99.90
7192;DHT22;3637;51.494;11.958;2022-12-20T00:51:13;5.70;99.90
7192;DHT22;3637;51.494;11.958;2022-12-20T00:54:15;5.80;99.90
7192;DHT22;3637;51.494;11.958;2022-12-20T00:57:19;5.60;99.90
7192;DHT22;3637;51.494;11.958;2022-12-20T01:00:21;5.40;99.90
7192;DHT22;3637;51.494;11.958;2022-12-20T01:03:23;5.50;99.90
7192;DHT22;3637;51.494;11.958;2022-12-20T01:06:25;5.40;99.90
7192;DHT22;3637;51.494;11.958;2022-12-20T01:09:27;5.40;99.90
7192;DHT22;3637;51.494;11.958;2022-12-20T01:12:30;5.40;99.90
7192;DHT22;3637;51.494;11.958;2022-12-20T01:15:32;6.10;99.90
7192;DHT22;3637;51.494;11.958;2022-12-20T01:18:35;6.00;99.90
7192;DHT22;3637;51.494;11.958;2022-12-20T01:21:37;5.50;99.90
7192;DHT22;3637;51.494;11.958;2022-12-20T01:24:43;6.00;99.90
7192;DHT22;3637;51.494;11.958;2022-12-20T01:27:47;5.50;99.90
7192;DHT22;3637;51.494;11.958;2022-12-20T01:30:49;5.40;99.90
7192;DHT22;3637;51.494;11.958;2022-12-20T01:33:51;5.40;99.90
7192;DHT22;3637;51.494;11.958;2022-12-20T01:36:53;6.20;99.90
7192;DHT22;3637;51.494;11.958;2022-12-20T01:39:54;6.20;99.90
7192;DHT22;3637;51.494;11.958;2022-12-20T01:42:58;5.80;99.90
7192;DHT22;3637;51.494;11.958;2022-12-20T01:46:00;5.80;99.90
7192;DHT22;3637;51.494;11.958;2022-12-20T01:49:05;5.50;99.90
7192;DHT22;3637;51.494;11.958;2022-12-20T01:52:12;5.50;99.90
7192;DHT22;3637;51.494;11.958;2022-12-20T01:55:17;5.70;99.90
7192;DHT22;3637;51.494;11.958;2022-12-20T01:58:22;5.50;99.90
7192;DHT22;3637;51.494;11.958;2022-12-20T02:01:24;6.40;99.90
7192;DHT22;3637;51.494;11.958;2022-12-20T02:04:26;6.20;99.90
7192;DHT22;3637;51.494;11.958;2022-12-20T02:07:31;6.10;99.90
7192;DHT22;3637;51.494;11.958;2022-12-20T02:10:43;5.60;99.90
7192;DHT22;3637;51.494;11.958;2022-12-20T02:13:55;5.70;99.90
7192;DHT22;3637;51.494;11.958;2022-12-20T02:17:10;5.70;99.90
7192;DHT22;3637;51.494;11.958;2022-12-20T02:20:32;5.70;99.90
7192;DHT22;3637;51.494;11.958;2022-12-20T02:24:04;5.70;99.90
7192;DHT22;3637;51.494;11.958;2022-12-20T02:27:27;5.70;99.90
7192;DHT22;3637;51.494;11.958;2022-12-20T02:30:34;5.80;99.90
7192;DHT22;3637;51.494;11.958;2022-12-20T02:33:41;5.80;99.90
7192;DHT22;3637;51.494;11.958;2022-12-20T02:36:44;5.80;99.90
7192;DHT22;3637;51.494;11.958;2022-12-20T02:39:46;5.80;99.90
7192;DHT22;3637;51.494;11.958;2022-12-20T02:42:51;5.80;99.90
7192;DHT22;3637;51.494;11.958;2022-12-20T02:45:57;6.40;99.90
7192;DHT22;3637;51.494;11.958;2022-12-20T02:49:02;5.80;99.90
7192;DHT22;3637;51.494;11.958;2022-12-20T02:52:06;6.50;99.90
7192;DHT22;3637;51.494;11.958;2022-12-20T02:55:08;6.00;99.90
7192;DHT22;3637;51.494;11.958;2022-12-20T02:58:16;5.90;99.90
7192;DHT22;3637;51.494;11.958;2022-12-20T03:01:22;5.90;99.90
7192;DHT22;3637;51.494;11.958;2022-12-20T03:04:28;6.00;99.90
7192;DHT22;3637;51.494;11.958;2022-12-20T03:07:33;6.90;99.90
7192;DHT22;3637;51.494;11.958;2022-12-20T03:10:34;5.40;99.90
7192;DHT22;3637;51.494;11.958;2022-12-20T03:13:36;6.50;99.90
7192;DHT22;3637;51.494;11.958;2022-12-20T03:16:40;6.00;99.90
7192;DHT22;3637;51.494;11.958;2022-12-20T03:19:42;5.80;99.90
7192;DHT22;3637;51.494;11.958;2022-12-20T03:22:44;6.00;99.90
7192;DHT22;3637;51.494;11.958;2022-12-20T03:25:45;6.10;99.90
7192;DHT22;3637;51.494;11.958;2022-12-20T03:28:47;6.10;99.90
7192;DHT22;3637;51.494;11.958;2022-12-20T03:31:51;6.20;99.90
7192;DHT22;3637;51.494;11.958;2022-12-20T03:34:52;5.50;99.90
7192;DHT22;3637;51.494;11.958;2022-12-20T03:37:54;6.20;99.90
7192;DHT22;3637;51.494;11.958;2022-12-20T03:40:56;6.30;99.90
7192;DHT22;3637;51.494;11.958;2022-12-20T03:43:58;6.30;99.90
7192;DHT22;3637;51.494;11.958;2022-12-20T03:47:01;6.80;99.90
7192;DHT22;3637;51.494;11.958;2022-12-20T03:50:05;7.00;99.90
7192;DHT22;3637;51.494;11.958;2022-12-20T03:53:07;6.30;99.90
7192;DHT22;3637;51.494;11.958;2022-12-20T03:56:09;6.20;99.90
7192;DHT22;3637;51.494;11.958;2022-12-20T03:59:11;6.20;99.90
7192;DHT22;3637;51.494;11.958;2022-12-20T04:02:14;6.50;99.90
7192;DHT22;3637;51.494;11.958;2022-12-20T04:05:16;7.00;99.90
7192;DHT22;3637;51.494;11.958;2022-12-20T04:08:18;6.30;99.90
7192;DHT22;3637;51.494;11.958;2022-12-20T04:11:21;6.80;99.90
7192;DHT22;3637;51.494;11.958;2022-12-20T04:14:23;6.30;99.90
7192;DHT22;3637;51.494;11.958;2022-12-20T04:17:26;7.20;99.90
7192;DHT22;3637;51.494;11.958;2022-12-20T04:20:28;6.40;99.90
7192;DHT22;3637;51.494;11.958;2022-12-20T04:23:30;6.40;99.90
7192;DHT22;3637;51.494;11.958;2022-12-20T04:26:32;6.40;99.90
7192;DHT22;3637;51.494;11.958;2022-12-20T04:29:34;6.30;99.90
7192;DHT22;3637;51.494;11.958;2022-12-20T04:32:38;6.40;99.90
7192;DHT22;3637;51.494;11.958;2022-12-20T04:35:39;7.10;99.90
7192;DHT22;3637;51.494;11.958;2022-12-20T04:38:41;6.60;99.90
7192;DHT22;3637;51.494;11.958;2022-12-20T04:41:43;6.50;99.90
7192;DHT22;3637;51.494;11.958;2022-12-20T04:44:45;6.40;99.90
7192;DHT22;3637;51.494;11.958;2022-12-20T04:47:48;6.60;99.90
7192;DHT22;3637;51.494;11.958;2022-12-20T04:50:50;6.70;99.90
7192;DHT22;3637;51.494;11.958;2022-12-20T04:53:53;7.20;99.90
7192;DHT22;3637;51.494;11.958;2022-12-20T04:56:53;6.90;99.90
7192;DHT22;3637;51.494;11.958;2022-12-20T04:59:55;6.90;99.90
7192;DHT22;3637;51.494;11.958;2022-12-20T05:02:59;7.10;99.90
7192;DHT22;3637;51.494;11.958;2022-12-20T05:06:01;7.00;99.90
7192;DHT22;3637;51.494;11.958;2022-12-20T05:09:03;6.50;99.90
7192;DHT22;3637;51.494;11.958;2022-12-20T05:12:05;6.50;99.90
7192;DHT22;3637;51.494;11.958;2022-12-20T05:15:08;6.40;99.90
7192;DHT22;3637;51.494;11.958;2022-12-20T05:18:11;6.30;99.90
7192;DHT22;3637;51.494;11.958;2022-12-20T05:21:13;7.00;99.90
7192;DHT22;3637;51.494;11.958;2022-12-20T05:24:33;6.30;99.90
7192;DHT22;3637;51.494;11.958;2022-12-20T05:27:52;6.40;99.90
7192;DHT22;3637;51.494;11.958;2022-12-20T05:30:54;6.40;99.90
7192;DHT22;3637;51.494;11.958;2022-12-20T05:33:58;6.40;99.90
7192;DHT22;3637;51.494;11.958;2022-12-20T05:36:59;6.40;99.90
7192;DHT22;3637;51.494;11.958;2022-12-20T05:40:02;6.50;99.90
7192;DHT22;3637;51.494;11.958;2022-12-20T05:43:04;6.40;99.90
7192;DHT22;3637;51.494;11.958;2022-12-20T05:46:06;6.50;99.90
7192;DHT22;3637;51.494;11.958;2022-12-20T05:49:11;7.50;99.90
7192;DHT22;3637;51.494;11.958;2022-12-20T05:52:13;6.50;99.90
7192;DHT22;3637;51.494;11.958;2022-12-20T05:55:15;7.00;99.90
7192;DHT22;3637;51.494;11.958;2022-12-20T05:58:18;7.10;99.90
7192;DHT22;3637;51.494;11.958;2022-12-20T06:01:20;6.20;99.90
7192;DHT22;3637;51.494;11.958;2022-12-20T06:04:23;6.60;99.90
7192;DHT22;3637;51.494;11.958;2022-12-20T06:07:26;6.60;99.90
7192;DHT22;3637;51.494;11.958;2022-12-20T06:10:29;6.60;99.90
7192;DHT22;3637;51.494;11.958;2022-12-20T06:13:31;6.60;99.90
7192;DHT22;3637;51.494;11.958;2022-12-20T06:16:33;6.70;99.90
7192;DHT22;3637;51.494;11.958;2022-12-20T06:19:37;7.20;99.90
7192;DHT22;3637;51.494;11.958;2022-12-20T06:22:40;6.80;99.90
7192;DHT22;3637;51.494;11.958;2022-12-20T06:25:42;6.60;99.90
7192;DHT22;3637;51.494;11.958;2022-12-20T06:28:44;7.40;99.90
7192;DHT22;3637;51.494;11.958;2022-12-20T06:31:51;6.80;99.90
7192;DHT22;3637;51.494;11.958;2022-12-20T06:34:55;6.60;99.90
7192;DHT22;3637;51.494;11.958;2022-12-20T06:37:56;6.90;99.90
7192;DHT22;3637;51.494;11.958;2022-12-20T06:40:58;7.00;99.90
7192;DHT22;3637;51.494;11.958;2022-12-20T06:44:00;7.20;99.90
7192;DHT22;3637;51.494;11.958;2022-12-20T06:47:02;6.90;99.90
7192;DHT22;3637;51.494;11.958;2022-12-20T06:50:07;7.20;99.90
7192;DHT22;3637;51.494;11.958;2022-12-20T06:53:08;6.70;99.90
7192;DHT22;3637;51.494;11.958;2022-12-20T06:56:10;7.30;99.90
7192;DHT22;3637;51.494;11.958;2022-12-20T06:59:12;6.70;99.90
7192;DHT22;3637;51.494;11.958;2022-12-20T07:02:14;6.70;99.90
7192;DHT22;3637;51.494;11.958;2022-12-20T07:05:18;6.90;99.90
7192;DHT22;3637;51.494;11.958;2022-12-20T07:08:20;7.90;99.90
7192;DHT22;3637;51.494;11.958;2022-12-20T07:11:22;7.10;99.90
7192;DHT22;3637;51.494;11.958;2022-12-20T07:14:24;6.60;99.90
7192;DHT22;3637;51.494;11.958;2022-12-20T07:17:26;7.00;99.90
7192;DHT22;3637;51.494;11.958;2022-12-20T07:20:30;6.50;99.90
7192;DHT22;3637;51.494;11.958;2022-12-20T07:23:32;6.50;99.90
7192;DHT22;3637;51.494;11.958;2022-12-20T07:26:34;6.80;99.90
7192;DHT22;3637;51.494;11.958;2022-12-20T07:29:36;6.50;99.90
7192;DHT22;3637;51.494;11.958;2022-12-20T07:32:39;6.70;99.90
7192;DHT22;3637;51.494;11.958;2022-12-20T07:35:43;6.70;99.90
7192;DHT22;3637;51.494;11.958;2022-12-20T07:38:46;7.60;99.90
7192;DHT22;3637;51.494;11.958;2022-12-20T07:41:48;6.60;99.90
7192;DHT22;3637;51.494;11.958;2022-12-20T07:44:50;7.00;99.90
7192;DHT22;3637;51.494;11.958;2022-12-20T07:47:52;6.60;99.90
7192;DHT22;3637;51.494;11.958;2022-12-20T07:50:57;6.60;99.90
7192;DHT22;3637;51.494;11.958;2022-12-20T07:54:01;7.20;99.90
7192;DHT22;3637;51.494;11.958;2022-12-20T07:57:08;6.60;99.90
7192;DHT22;3637;51.494;11.958;2022-12-20T08:00:13;6.60;99.90
7192;DHT22;3637;51.494;11.958;2022-12-20T08:03:17;6.60;99.90
7192;DHT22;3637;51.494;11.958;2022-12-20T08:06:22;6.70;99.90
7192;DHT22;3637;51.494;11.958;2022-12-20T08:09:25;6.70;99.90
7192;DHT22;3637;51.494;11.958;2022-12-20T08:12:29;6.70;99.90
7192;DHT22;3637;51.494;11.958;2022-12-20T08:15:32;7.80;99.90
7192;DHT22;3637;51.494;11.958;2022-12-20T08:18:35;6.60;99.90
7192;DHT22;3637;51.494;11.958;2022-12-20T08:21:38;6.70;99.90
7192;DHT22;3637;51.494;11.958;2022-12-20T08:24:40;6.60;99.90
7192;DHT22;3637;51.494;11.958;2022-12-20T08:27:42;7.10;99.90
7192;DHT22;3637;51.494;11.958;2022-12-20T08:30:44;7.10;99.90
7192;DHT22;3637;51.494;11.958;2022-12-20T08:33:46;7.30;99.90
7192;DHT22;3637;51.494;11.958;2022-12-20T08:36:52;7.40;99.90
7192;DHT22;3637;51.494;11.958;2022-12-20T08:39:54;7.20;99.90
7192;DHT22;3637;51.494;11.958;2022-12-20T08:42:57;6.90;99.90
7192;DHT22;3637;51.494;11.958;2022-12-20T08:45:59;7.40;99.90
7192;DHT22;3637;51.494;11.958;2022-12-20T08:49:01;7.50;99.90
7192;DHT22;3637;51.494;11.958;2022-12-20T08:52:05;6.90;99.90
7192;DHT22;3637;51.494;11.958;2022-12-20T08:55:07;6.80;99.90
7192;DHT22;3637;51.494;11.958;2022-12-20T08:58:09;6.70;99.90
7192;DHT22;3637;51.494;11.958;2022-12-20T09:01:13;7.60;99.90
7192;DHT22;3637;51.494;11.958;2022-12-20T09:04:15;6.80;99.90
7192;DHT22;3637;51.494;11.958;2022-12-20T09:07:18;6.80;99.90
7192;DHT22;3637;51.494;11.958;2022-12-20T09:10:20;6.90;99.90
7192;DHT22;3637;51.494;11.958;2022-12-20T09:13:22;6.80;99.90
7192;DHT22;3637;51.494;11.958;2022-12-20T09:16:26;6.80;99.90
7192;DHT22;3637;51.494;11.958;2022-12-20T09:19:28;6.90;99.90
7192;DHT22;3637;51.494;11.958;2022-12-20T09:22:32;6.80;99.90
7192;DHT22;3637;51.494;11.958;2022-12-20T09:25:33;6.90;99.90
7192;DHT22;3637;51.494;11.958;2022-12-20T09:28:37;7.60;99.90
7192;DHT22;3637;51.494;11.958;2022-12-20T09:31:39;7.20;99.90
7192;DHT22;3637;51.494;11.958;2022-12-20T09:34:40;6.90;99.90
7192;DHT22;3637;51.494;11.958;2022-12-20T09:37:44;7.30;99.90
7192;DHT22;3637;51.494;11.958;2022-12-20T09:40:47;6.90;99.90
7192;DHT22;3637;51.494;11.958;2022-12-20T09:43:50;7.60;99.90
7192;DHT22;3637;51.494;11.958;2022-12-20T09:46:54;6.90;99.90
7192;DHT22;3637;51.494;11.958;2022-12-20T09:49:56;6.70;99.90
7192;DHT22;3637;51.494;11.958;2022-12-20T09:53:12;7.00;99.90
7192;DHT22;3637;51.494;11.958;2022-12-20T09:56:22;6.80;99.90
7192;DHT22;3637;51.494;11.958;2022-12-20T09:59:27;7.10;99.90
7192;DHT22;3637;51.494;11.958;2022-12-20T10:02:29;7.00;99.90
7192;DHT22;3637;51.494;11.958;2022-12-20T10:05:35;6.90;99.90
7192;DHT22;3637;51.494;11.958;2022-12-20T10:08:49;7.90;99.90
7192;DHT22;3637;51.494;11.958;2022-12-20T10:12:03;7.00;99.90
7192;DHT22;3637;51.494;11.958;2022-12-20T10:15:17;7.10;99.90
7192;DHT22;3637;51.494;11.958;2022-12-20T10:18:31;7.00;99.90
7192;DHT22;3637;51.494;11.958;2022-12-20T10:21:42;7.20;99.90
7192;DHT22;3637;51.494;11.958;2022-12-20T10:24:58;7.40;99.90
7192;DHT22;3637;51.494;11.958;2022-12-20T10:28:04;7.70;99.90
7192;DHT22;3637;51.494;11.958;2022-12-20T10:31:13;7.30;99.90
7192;DHT22;3637;51.494;11.958;2022-12-20T10:34:15;7.20;99.90
7192;DHT22;3637;51.494;11.958;2022-12-20T10:37:17;7.70;99.90
7192;DHT22;3637;51.494;11.958;2022-12-20T10:40:27;7.70;99.90
7192;DHT22;3637;51.494;11.958;2022-12-20T10:43:41;7.30;99.90
7192;DHT22;3637;51.494;11.958;2022-12-20T10:46:46;7.40;99.90
7192;DHT22;3637;51.494;11.958;2022-12-20T10:49:49;7.90;99.90
7192;DHT22;3637;51.494;11.958;2022-12-20T10:53:04;8.40;99.90
7192;DHT22;3637;51.494;11.958;2022-12-20T10:56:18;8.10;99.90
7192;DHT22;3637;51.494;11.958;2022-12-20T10:59:27;7.60;99.90
7192;DHT22;3637;51.494;11.958;2022-12-20T11:02:33;7.70;99.90
7192;DHT22;3637;51.494;11.958;2022-12-20T11:05:35;7.50;99.90
7192;DHT22;3637;51.494;11.958;2022-12-20T11:08:38;8.10;99.90
7192;DHT22;3637;51.494;11.958;2022-12-20T11:12:00;7.90;99.90
7192;DHT22;3637;51.494;11.958;2022-12-20T11:15:08;7.50;99.90
7192;DHT22;3637;51.494;11.958;2022-12-20T11:18:16;7.60;99.90
7192;DHT22;3637;51.494;11.958;2022-12-20T11:21:28;8.20;99.90
7192;DHT22;3637;51.494;11.958;2022-12-20T11:24:38;7.30;99.90
7192;DHT22;3637;51.494;11.958;2022-12-20T11:27:56;8.40;99.90
7192;DHT22;3637;51.494;11.958;2022-12-20T11:31:09;8.10;99.90
7192;DHT22;3637;51.494;11.958;2022-12-20T11:34:26;7.70;99.90
7192;DHT22;3637;51.494;11.958;2022-12-20T11:37:34;7.70;99.90
7192;DHT22;3637;51.494;11.958;2022-12-20T11:40:43;7.70;99.90
7192;DHT22;3637;51.494;11.958;2022-12-20T11:44:14;7.80;99.90
7192;DHT22;3637;51.494;11.958;2022-12-20T11:47:40;8.30;99.90
7192;DHT22;3637;51.494;11.958;2022-12-20T11:50:56;8.00;99.90
7192;DHT22;3637;51.494;11.958;2022-12-20T11:54:01;7.60;99.90
7192;DHT22;3637;51.494;11.958;2022-12-20T11:57:12;7.70;99.90
7192;DHT22;3637;51.494;11.958;2022-12-20T12:00:18;7.80;99.90
7192;DHT22;3637;51.494;11.958;2022-12-20T12:03:27;7.70;99.90
7192;DHT22;3637;51.494;11.958;2022-12-20T12:06:33;7.70;99.90
7192;DHT22;3637;51.494;11.958;2022-12-20T12:09:38;8.00;99.90
7192;DHT22;3637;51.494;11.958;2022-12-20T12:12:43;7.90;99.90
7192;DHT22;3637;51.494;11.958;2022-12-20T12:15:52;8.00;99.90
7192;DHT22;3637;51.494;11.958;2022-12-20T12:18:57;7.50;99.90
7192;DHT22;3637;51.494;11.958;2022-12-20T12:22:03;8.00;99.90
7192;DHT22;3637;51.494;11.958;2022-12-20T12:25:13;7.50;99.90
7192;DHT22;3637;51.494;11.958;2022-12-20T12:28:18;7.50;99.90
7192;DHT22;3637;51.494;11.958;2022-12-20T12:31:26;8.20;99.90
7192;DHT22;3637;51.494;11.958;2022-12-20T12:34:43;7.40;99.90
7192;DHT22;3637;51.494;11.958;2022-12-20T12:37:54;7.40;99.90
7192;DHT22;3637;51.494;11.958;2022-12-20T12:41:28;7.40;99.90
7192;DHT22;3637;51.494;11.958;2022-12-20T12:44:40;7.30;99.90
7192;DHT22;3637;51.494;11.958;2022-12-20T12:47:49;7.50;99.90
7192;DHT22;3637;51.494;11.958;2022-12-20T12:50:53;7.80;99.90
7192;DHT22;3637;51.494;11.958;2022-12-20T12:54:03;7.30;99.90
7192;DHT22;3637;51.494;11.958;2022-12-20T12:57:14;7.20;99.90
7192;DHT22;3637;51.494;11.958;2022-12-20T13:04:22;7.10;99.90
7192;DHT22;3637;51.494;11.958;2022-12-20T13:07:27;7.10;99.90
7192;DHT22;3637;51.494;11.958;2022-12-20T13:11:00;7.10;99.90
7192;DHT22;3637;51.494;11.958;2022-12-20T13:17:47;7.90;99.90
7192;DHT22;3637;51.494;11.958;2022-12-20T13:24:38;7.00;99.90
7192;DHT22;3637;51.494;11.958;2022-12-20T13:27:44;7.00;99.90
7192;DHT22;3637;51.494;11.958;2022-12-20T13:30:47;7.00;99.90
7192;DHT22;3637;51.494;11.958;2022-12-20T13:34:34;7.40;99.90
7192;DHT22;3637;51.494;11.958;2022-12-20T13:37:52;7.10;99.90
7192;DHT22;3637;51.494;11.958;2022-12-20T13:40:57;7.00;99.90
7192;DHT22;3637;51.494;11.958;2022-12-20T13:47:41;7.10;99.90
7192;DHT22;3637;51.494;11.958;2022-12-20T13:50:48;7.10;99.90
7192;DHT22;3637;51.494;11.958;2022-12-20T13:53:54;7.50;99.90
7192;DHT22;3637;51.494;11.958;2022-12-20T13:56:59;7.00;99.90
7192;DHT22;3637;51.494;11.958;2022-12-20T14:00:20;7.00;99.90
7192;DHT22;3637;51.494;11.958;2022-12-20T14:03:27;6.90;99.90
7192;DHT22;3637;51.494;11.958;2022-12-20T14:06:31;7.50;99.90
7192;DHT22;3637;51.494;11.958;2022-12-20T14:09:34;7.30;99.90
7192;DHT22;3637;51.494;11.958;2022-12-20T14:12:41;7.40;99.90
7192;DHT22;3637;51.494;11.958;2022-12-20T14:15:48;7.00;99.90
7192;DHT22;3637;51.494;11.958;2022-12-20T14:18:52;6.90;99.90
7192;DHT22;3637;51.494;11.958;2022-12-20T14:22:02;6.90;99.90
7192;DHT22;3637;51.494;11.958;2022-12-20T14:25:15;6.90;99.90
7192;DHT22;3637;51.494;11.958;2022-12-20T14:28:29;6.90;99.90
7192;DHT22;3637;51.494;11.958;2022-12-20T14:31:37;6.50;99.90
7192;DHT22;3637;51.494;11.958;2022-12-20T14:34:43;6.80;99.90
7192;DHT22;3637;51.494;11.958;2022-12-20T14:37:54;7.30;99.90
7192;DHT22;3637;51.494;11.958;2022-12-20T14:40:56;6.80;99.90
7192;DHT22;3637;51.494;11.958;2022-12-20T14:44:01;6.60;99.90
7192;DHT22;3637;51.494;11.958;2022-12-20T14:47:12;6.80;99.90
7192;DHT22;3637;51.494;11.958;2022-12-20T14:50:20;7.70;99.90
7192;DHT22;3637;51.494;11.958;2022-12-20T14:53:25;6.80;99.90
7192;DHT22;3637;51.494;11.958;2022-12-20T14:56:28;6.80;99.90
7192;DHT22;3637;51.494;11.958;2022-12-20T14:59:33;6.90;99.90
7192;DHT22;3637;51.494;11.958;2022-12-20T15:02:38;6.70;99.90
7192;DHT22;3637;51.494;11.958;2022-12-20T15:05:44;7.40;99.90
7192;DHT22;3637;51.494;11.958;2022-12-20T15:08:48;6.70;99.90
7192;DHT22;3637;51.494;11.958;2022-12-20T15:11:50;6.80;99.90
7192;DHT22;3637;51.494;11.958;2022-12-20T15:14:52;6.20;99.90
7192;DHT22;3637;51.494;11.958;2022-12-20T15:17:54;6.50;99.90
7192;DHT22;3637;51.494;11.958;2022-12-20T15:21:05;6.50;99.90
7192;DHT22;3637;51.494;11.958;2022-12-20T15:24:13;6.50;99.90
7192;DHT22;3637;51.494;11.958;2022-12-20T15:27:16;6.70;99.90
7192;DHT22;3637;51.494;11.958;2022-12-20T15:30:18;6.50;99.90
7192;DHT22;3637;51.494;11.958;2022-12-20T15:33:22;6.50;99.90
7192;DHT22;3637;51.494;11.958;2022-12-20T15:36:26;6.50;99.90
7192;DHT22;3637;51.494;11.958;2022-12-20T15:39:30;6.90;99.90
7192;DHT22;3637;51.494;11.958;2022-12-20T15:42:32;7.40;99.90
7192;DHT22;3637;51.494;11.958;2022-12-20T15:45:34;6.30;99.90
7192;DHT22;3637;51.494;11.958;2022-12-20T15:48:39;7.40;99.90
7192;DHT22;3637;51.494;11.958;2022-12-20T15:51:43;6.60;99.90
7192;DHT22;3637;51.494;11.958;2022-12-20T15:54:50;6.50;99.90
7192;DHT22;3637;51.494;11.958;2022-12-20T15:57:51;6.50;99.90
7192;DHT22;3637;51.494;11.958;2022-12-20T16:00:57;6.60;99.90
7192;DHT22;3637;51.494;11.958;2022-12-20T16:04:04;5.40;99.90
7192;DHT22;3637;51.494;11.958;2022-12-20T16:07:08;6.60;99.90
7192;DHT22;3637;51.494;11.958;2022-12-20T16:10:13;7.00;99.90
7192;DHT22;3637;51.494;11.958;2022-12-20T16:13:21;6.60;99.90
7192;DHT22;3637;51.494;11.958;2022-12-20T16:16:24;6.60;99.90
7192;DHT22;3637;51.494;11.958;2022-12-20T16:19:30;6.60;99.90
7192;DHT22;3637;51.494;11.958;2022-12-20T16:22:32;6.60;99.90
7192;DHT22;3637;51.494;11.958;2022-12-20T16:25:35;6.70;99.90
7192;DHT22;3637;51.494;11.958;2022-12-20T16:28:37;7.30;99.90
7192;DHT22;3637;51.494;11.958;2022-12-20T16:31:40;6.50;99.90
7192;DHT22;3637;51.494;11.958;2022-12-20T16:34:42;7.30;99.90
7192;DHT22;3637;51.494;11.958;2022-12-20T16:37:44;6.40;99.90
7192;DHT22;3637;51.494;11.958;2022-12-20T16:40:49;6.40;99.90
7192;DHT22;3637;51.494;11.958;2022-12-20T16:43:52;6.40;99.90
7192;DHT22;3637;51.494;11.958;2022-12-20T16:46:54;6.40;99.90
7192;DHT22;3637;51.494;11.958;2022-12-20T16:49:56;6.40;99.90
7192;DHT22;3637;51.494;11.958;2022-12-20T16:52:57;6.40;99.90
7192;DHT22;3637;51.494;11.958;2022-12-20T16:56:01;6.40;99.90
7192;DHT22;3637;51.494;11.958;2022-12-20T16:59:07;6.50;99.90
7192;DHT22;3637;51.494;11.958;2022-12-20T17:02:20;6.40;99.90
7192;DHT22;3637;51.494;11.958;2022-12-20T17:05:26;6.50;99.90
7192;DHT22;3637;51.494;11.958;2022-12-20T17:08:28;6.50;99.90
7192;DHT22;3637;51.494;11.958;2022-12-20T17:11:32;6.20;99.90
7192;DHT22;3637;51.494;11.958;2022-12-20T17:14:34;6.50;99.90
7192;DHT22;3637;51.494;11.958;2022-12-20T17:17:36;6.50;99.90
7192;DHT22;3637;51.494;11.958;2022-12-20T17:20:38;6.50;99.90
7192;DHT22;3637;51.494;11.958;2022-12-20T17:23:40;6.50;99.90
7192;DHT22;3637;51.494;11.958;2022-12-20T17:26:43;6.90;99.90
7192;DHT22;3637;51.494;11.958;2022-12-20T17:29:45;6.50;99.90
7192;DHT22;3637;51.494;11.958;2022-12-20T17:32:47;6.50;99.90
7192;DHT22;3637;51.494;11.958;2022-12-20T17:35:49;6.60;99.90
7192;DHT22;3637;51.494;11.958;2022-12-20T17:38:51;6.60;99.90
7192;DHT22;3637;51.494;11.958;2022-12-20T17:41:54;6.60;99.90
7192;DHT22;3637;51.494;11.958;2022-12-20T17:44:56;6.60;99.90
7192;DHT22;3637;51.494;11.958;2022-12-20T17:47:58;6.60;99.90
7192;DHT22;3637;51.494;11.958;2022-12-20T17:51:00;6.70;99.90
7192;DHT22;3637;51.494;11.958;2022-12-20T17:54:02;6.70;99.90
7192;DHT22;3637;51.494;11.958;2022-12-20T17:57:05;6.90;99.90
7192;DHT22;3637;51.494;11.958;2022-12-20T18:00:12;6.80;99.90
7192;DHT22;3637;51.494;11.958;2022-12-20T18:03:17;6.60;99.90
7192;DHT22;3637;51.494;11.958;2022-12-20T18:06:19;7.90;99.90
7192;DHT22;3637;51.494;11.958;2022-12-20T18:09:21;6.70;99.90
7192;DHT22;3637;51.494;11.958;2022-12-20T18:12:24;6.70;99.90
7192;DHT22;3637;51.494;11.958;2022-12-20T18:15:26;7.20;99.90
7192;DHT22;3637;51.494;11.958;2022-12-20T18:18:28;6.70;99.90
7192;DHT22;3637;51.494;11.958;2022-12-20T18:21:30;6.80;99.90
7192;DHT22;3637;51.494;11.958;2022-12-20T18:24:32;6.80;99.90
7192;DHT22;3637;51.494;11.958;2022-12-20T18:27:40;6.90;99.90
7192;DHT22;3637;51.494;11.958;2022-12-20T18:30:42;6.90;99.90
7192;DHT22;3637;51.494;11.958;2022-12-20T18:33:44;7.00;99.90
7192;DHT22;3637;51.494;11.958;2022-12-20T18:36:46;6.90;99.90
7192;DHT22;3637;51.494;11.958;2022-12-20T18:39:48;6.90;99.90
7192;DHT22;3637;51.494;11.958;2022-12-20T18:42:51;6.90;99.90
7192;DHT22;3637;51.494;11.958;2022-12-20T18:45:53;6.80;99.90
7192;DHT22;3637;51.494;11.958;2022-12-20T18:48:57;6.90;99.90
7192;DHT22;3637;51.494;11.958;2022-12-20T18:51:59;6.90;99.90
7192;DHT22;3637;51.494;11.958;2022-12-20T18:55:00;7.80;99.90
7192;DHT22;3637;51.494;11.958;2022-12-20T18:58:04;7.20;99.90
7192;DHT22;3637;51.494;11.958;2022-12-20T19:01:10;6.90;99.90
7192;DHT22;3637;51.494;11.958;2022-12-20T19:04:12;7.20;99.90
7192;DHT22;3637;51.494;11.958;2022-12-20T19:07:14;7.40;99.90
7192;DHT22;3637;51.494;11.958;2022-12-20T19:10:16;7.00;99.90
7192;DHT22;3637;51.494;11.958;2022-12-20T19:13:19;7.00;99.90
7192;DHT22;3637;51.494;11.958;2022-12-20T19:16:23;7.30;99.90
7192;DHT22;3637;51.494;11.958;2022-12-20T19:19:25;7.00;99.90
7192;DHT22;3637;51.494;11.958;2022-12-20T19:22:26;7.50;99.90
7192;DHT22;3637;51.494;11.958;2022-12-20T19:25:31;7.00;99.90
7192;DHT22;3637;51.494;11.958;2022-12-20T19:28:34;7.00;99.90
7192;DHT22;3637;51.494;11.958;2022-12-20T19:31:36;6.90;99.90
7192;DHT22;3637;51.494;11.958;2022-12-20T19:34:38;7.20;99.90
7192;DHT22;3637;51.494;11.958;2022-12-20T19:37:40;6.90;99.90
7192;DHT22;3637;51.494;11.958;2022-12-20T19:40:41;6.80;99.90
7192;DHT22;3637;51.494;11.958;2022-12-20T19:43:45;6.90;99.90
7192;DHT22;3637;51.494;11.958;2022-12-20T19:46:47;6.90;99.90
7192;DHT22;3637;51.494;11.958;2022-12-20T19:49:49;7.40;99.90
7192;DHT22;3637;51.494;11.958;2022-12-20T19:52:51;6.90;99.90
7192;DHT22;3637;51.494;11.958;2022-12-20T19:55:53;7.00;99.90
7192;DHT22;3637;51.494;11.958;2022-12-20T19:58:56;6.90;99.90
7192;DHT22;3637;51.494;11.958;2022-12-20T20:01:58;6.90;99.90
7192;DHT22;3637;51.494;11.958;2022-12-20T20:05:00;6.90;99.90
7192;DHT22;3637;51.494;11.958;2022-12-20T20:08:02;7.30;99.90
7192;DHT22;3637;51.494;11.958;2022-12-20T20:11:04;6.90;99.90
7192;DHT22;3637;51.494;11.958;2022-12-20T20:14:07;6.90;99.90
7192;DHT22;3637;51.494;11.958;2022-12-20T20:17:09;6.90;99.90
7192;DHT22;3637;51.494;11.958;2022-12-20T20:20:11;6.90;99.90
7192;DHT22;3637;51.494;11.958;2022-12-20T20:23:13;6.90;99.90